Time;durP1;ratioP1;P1;durP2;ratioP2;P2;SDS_P1;SDS_P2;PMS_P1;PMS_P2;Temp;Humidity;BMP_temperature;BMP_pressure;BME280_temperature;BME280_humidity;BME280_pressure;Samples;Min_cycle;Max_cycle;Signal;HPM_P1;HPM_P2
2022/11/20 00:01:19;;;;;;;38.10;26.05;;;;;;;-3.76;100.00;66367.72;4994213;28;20034;-79
2022/11/20 00:03:45;;;;;;;38.15;27.08;;;;;;;-3.81;100.00;66361.53;4988985;28;20113;-79
2022/11/20 00:06:13;;;;;;;42.63;28.58;;;;;;;-3.80;100.00;66367.88;4995240;28;20034;-82
2022/11/20 00:08:38;;;;;;;36.80;25.55;;;;;;;-3.80;100.00;66367.88;4996438;28;20629;-78
2022/11/20 00:11:04;;;;;;;41.40;27.45;;;;;;;-3.81;100.00;66369.34;4988331;28;20066;-79
2022/11/20 00:13:29;;;;;;;42.00;29.90;;;;;;;-3.88;100.00;66359.47;4982966;28;20070;-79
2022/11/20 00:15:59;;;;;;;61.92;45.08;;;;;;;-3.84;100.00;66361.34;4984792;28;20125;-79
2022/11/20 00:18:25;;;;;;;39.08;24.75;;;;;;;-3.89;100.00;66358.91;4989000;28;20133;-80
2022/11/20 00:20:50;;;;;;;38.00;26.63;;;;;;;-3.93;100.00;66354.41;4985982;28;20445;-81
2022/11/20 00:23:16;;;;;;;39.38;26.05;;;;;;;-3.99;100.00;66347.16;4985852;28;20042;-80
2022/11/20 00:25:41;;;;;;;36.85;25.65;;;;;;;-3.94;100.00;66353.31;4991043;28;20177;-80
2022/11/20 00:28:06;;;;;;;40.15;26.23;;;;;;;-3.94;100.00;66358.50;4993690;28;20072;-79
2022/11/20 00:30:32;;;;;;;39.20;26.83;;;;;;;-3.97;100.00;66346.78;4989286;28;20073;-80
2022/11/20 00:32:57;;;;;;;42.25;30.38;;;;;;;-3.95;100.00;66349.56;4990721;28;20096;-81
2022/11/20 00:35:23;;;;;;;42.05;30.55;;;;;;;-3.99;100.00;66345.09;4992364;28;20042;-80
2022/11/20 00:37:48;;;;;;;42.42;29.48;;;;;;;-4.00;100.00;66346.59;4991857;28;20037;-80
2022/11/20 00:40:13;;;;;;;33.40;24.85;;;;;;;-4.12;100.00;66338.34;4992982;28;20034;-80
2022/11/20 00:42:39;;;;;;;34.38;23.20;;;;;;;-4.15;100.00;66327.19;4990269;28;20125;-82
2022/11/20 00:45:06;;;;;;;36.72;23.08;;;;;;;-4.19;100.00;66325.84;4989495;28;20042;-79
2022/11/20 00:47:32;;;;;;;35.95;24.23;;;;;;;-4.18;100.00;66326.97;4990957;28;20068;-80
2022/11/20 00:49:57;;;;;;;33.53;23.45;;;;;;;-4.32;100.00;66309.25;4989139;28;20049;-80
2022/11/20 00:52:22;;;;;;;31.48;22.92;;;;;;;-4.35;100.00;66307.94;4991353;28;20137;-80
2022/11/20 00:54:48;;;;;;;35.17;23.15;;;;;;;-4.31;100.00;66309.81;4989960;28;20046;-81
2022/11/20 00:57:13;;;;;;;36.22;22.58;;;;;;;-4.28;100.00;66315.22;4990767;28;20035;-79
2022/11/20 00:59:38;;;;;;;34.75;23.17;;;;;;;-4.31;100.00;66312.97;4990768;28;20061;-80
2022/11/20 01:02:04;;;;;;;32.30;22.60;;;;;;;-4.35;100.00;66307.94;4989435;28;20483;-81
2022/11/20 01:04:29;;;;;;;37.30;24.17;;;;;;;-4.36;100.00;66307.38;5004100;28;20061;-80
2022/11/20 01:06:55;;;;;;;35.35;24.45;;;;;;;-4.32;100.00;66313.88;4992701;28;20042;-79
2022/11/20 01:09:20;;;;;;;37.03;24.98;;;;;;;-4.28;100.00;66312.63;4990088;28;20125;-80
2022/11/20 01:11:45;;;;;;;35.60;23.08;;;;;;;-4.35;100.00;66305.34;4990257;28;20589;-79
2022/11/20 01:14:17;;;;;;;31.10;22.23;;;;;;;-4.43;100.00;66296.38;4989568;28;20069;-79
2022/11/20 01:16:51;;;;;;;34.75;24.30;;;;;;;-4.43;100.00;66299.56;4988830;28;20126;-77
2022/11/20 01:19:23;;;;;;;36.00;24.50;;;;;;;-4.40;100.00;66299.72;4982902;28;20042;-78
2022/11/20 01:21:51;;;;;;;34.20;22.60;;;;;;;-4.36;100.00;66304.78;4986912;28;20034;-79
2022/11/20 01:24:18;;;;;;;34.30;23.73;;;;;;;-4.35;100.00;66313.69;4992077;28;20046;-80
2022/11/20 01:26:47;;;;;;;33.90;21.33;;;;;;;-4.38;100.00;66301.97;4999804;28;20045;-81
2022/11/20 01:29:15;;;;;;;33.60;21.23;;;;;;;-4.35;100.00;66308.50;4993624;28;20480;-81
2022/11/20 01:31:41;;;;;;;32.65;20.33;;;;;;;-4.38;100.00;66309.78;4992100;28;20085;-82
2022/11/20 01:34:10;;;;;;;32.40;22.65;;;;;;;-4.54;100.00;66284.63;4987689;28;20100;-78
2022/11/20 01:36:37;;;;;;;32.53;22.27;;;;;;;-4.48;100.00;66293.38;4991242;28;20034;-77
2022/11/20 01:39:10;;;;;;;30.63;22.10;;;;;;;-4.49;100.00;66292.81;4987662;28;20576;-78
2022/11/20 01:44:41;;;;;;;30.33;20.38;;;;;;;-4.57;100.00;66281.28;4979439;28;20097;-77
2022/11/20 01:47:09;;;;;;;32.72;21.70;;;;;;;-4.54;100.00;66285.19;4984119;28;20518;-77
2022/11/20 01:49:42;;;;;;;32.03;21.42;;;;;;;-4.60;100.00;66278.47;4985847;28;20038;-77
2022/11/20 01:52:16;;;;;;;30.55;21.83;;;;;;;-4.66;100.00;66271.75;4988612;28;20125;-79
2022/11/20 01:54:51;;;;;;;33.50;22.60;;;;;;;-4.64;100.00;66276.03;4985732;28;20133;-79
2022/11/20 01:57:19;;;;;;;31.83;22.35;;;;;;;-4.62;100.00;66275.69;4991174;28;20041;-78
2022/11/20 01:59:53;;;;;;;32.15;21.25;;;;;;;-4.62;100.00;66278.28;4997748;28;20041;-77
2022/11/20 02:02:20;;;;;;;34.70;23.75;;;;;;;-4.59;100.00;66281.63;4988420;28;20533;-78
2022/11/20 02:04:47;;;;;;;32.28;20.30;;;;;;;-4.64;100.00;66278.63;4986920;28;20658;-80
2022/11/20 02:07:13;;;;;;;33.03;22.73;;;;;;;-4.70;100.00;66264.13;4989439;28;20137;-78
2022/11/20 02:09:39;;;;;;;34.20;22.75;;;;;;;-4.70;100.00;66264.13;4987291;28;20113;-77
2022/11/20 02:12:05;;;;;;;33.28;22.52;;;;;;;-4.81;100.00;66255.50;4996605;28;20581;-79
2022/11/20 02:14:30;;;;;;;33.90;22.98;;;;;;;-4.74;100.00;66264.84;4988191;28;20034;-79
2022/11/20 02:16:56;;;;;;;32.50;22.48;;;;;;;-4.73;100.00;66260.75;4984946;28;20057;-78
2022/11/20 02:19:28;;;;;;;33.53;22.98;;;;;;;-4.77;100.00;66256.84;4987286;28;20038;-78
2022/11/20 02:22:07;;;;;;;34.22;22.25;;;;;;;-4.78;100.00;66258.88;4986069;28;20108;-78
2022/11/20 02:24:33;;;;;;;32.92;22.42;;;;;;;-4.78;100.00;66260.91;5002717;28;20042;-80
2022/11/20 02:27:06;;;;;;;34.90;24.13;;;;;;;-4.81;100.00;66260.16;4986772;28;20042;-79
2022/11/20 02:29:52;;;;;;;31.88;22.23;;;;;;;-4.82;100.00;66259.03;4987594;28;20489;-77
2022/11/20 02:32:35;;;;;;;32.70;21.67;;;;;;;-4.91;100.00;66246.94;4969919;28;20044;-79
2022/11/20 02:35:29;;;;;;;32.17;22.13;;;;;;;-4.89;100.00;66249.19;4984087;28;20181;-78
2022/11/20 02:37:57;;;;;;;36.67;23.17;;;;;;;-4.91;100.00;66246.94;5001865;28;20046;-78
2022/11/20 02:40:23;;;;;;;33.72;22.42;;;;;;;-4.93;100.00;66247.28;4990190;28;20042;-77
2022/11/20 02:42:52;;;;;;;32.28;21.60;;;;;;;-4.91;100.00;66246.38;4986941;28;20039;-79
2022/11/20 02:45:18;;;;;;;32.72;22.27;;;;;;;-4.92;100.00;66245.25;4967080;28;20038;-78
2022/11/20 02:47:43;;;;;;;32.97;21.42;;;;;;;-4.92;100.00;66243.22;4984797;28;20038;-78
2022/11/20 02:50:09;;;;;;;31.90;20.92;;;;;;;-4.92;100.00;66245.25;4987269;28;20039;-78
2022/11/20 02:52:34;;;;;;;34.85;23.27;;;;;;;-4.95;100.00;66245.03;4987084;28;20042;-77
2022/11/20 02:55:00;;;;;;;30.42;20.88;;;;;;;-4.99;100.00;66235.94;4979541;28;20034;-79
2022/11/20 02:57:26;;;;;;;30.77;21.55;;;;;;;-5.05;100.00;66231.81;4986678;28;20038;-77
2022/11/20 02:59:51;;;;;;;31.75;21.33;;;;;;;-5.04;100.00;66229.78;4979405;28;20046;-77
2022/11/20 03:02:16;;;;;;;33.90;23.38;;;;;;;-5.02;100.00;66234.63;4985722;28;20042;-77
2022/11/20 03:04:42;;;;;;;32.30;22.38;;;;;;;-5.00;100.00;66236.88;4986960;28;20609;-79
2022/11/20 03:07:08;;;;;;;31.90;22.05;;;;;;;-4.95;100.00;66242.44;4993850;28;20129;-82
2022/11/20 03:09:34;;;;;;;32.30;22.42;;;;;;;-5.01;100.00;66235.72;4997877;28;20184;-81
2022/11/20 03:11:59;;;;;;;33.65;22.23;;;;;;;-5.06;100.00;66230.16;4999168;28;20070;-81
2022/11/20 03:14:24;;;;;;;34.90;23.15;;;;;;;-5.07;100.00;66223.81;4998234;28;20053;-81
2022/11/20 03:16:50;;;;;;;31.67;20.70;;;;;;;-5.10;100.00;66226.22;4996850;28;20053;-81
2022/11/20 03:19:15;;;;;;;32.58;21.95;;;;;;;-5.14;100.00;66218.59;4995355;28;20058;-81
2022/11/20 03:21:40;;;;;;;33.22;23.02;;;;;;;-5.16;100.00;66218.94;4989909;28;20070;-82
2022/11/20 03:24:07;;;;;;;31.85;20.50;;;;;;;-5.20;100.00;66214.47;4992149;28;20034;-80
2022/11/20 03:26:32;;;;;;;32.05;21.73;;;;;;;-5.19;100.00;66215.59;4998481;28;20068;-79
2022/11/20 03:29:00;;;;;;;33.00;21.52;;;;;;;-5.19;100.00;66213.00;4994629;28;20038;-81
2022/11/20 03:31:28;;;;;;;33.10;21.85;;;;;;;-5.18;100.00;66216.72;4993114;28;20030;-79
2022/11/20 03:33:55;;;;;;;35.03;23.02;;;;;;;-5.16;100.00;66219.50;4994920;28;20042;-81
2022/11/20 03:36:20;;;;;;;32.25;19.90;;;;;;;-5.19;100.00;66213.00;4995878;28;20034;-79
2022/11/20 03:38:47;;;;;;;28.75;20.55;;;;;;;-5.31;100.00;66203.28;4997110;28;20049;-80
2022/11/20 03:41:16;;;;;;;31.17;21.73;;;;;;;-5.28;100.00;66204.03;4998582;28;20035;-80
2022/11/20 03:43:41;;;;;;;32.85;21.83;;;;;;;-5.24;100.00;66216.31;4997832;28;20043;-80
2022/11/20 03:46:07;;;;;;;33.65;22.20;;;;;;;-5.29;100.00;66205.53;4997666;28;20049;-80
2022/11/20 03:48:33;;;;;;;31.58;21.13;;;;;;;-5.27;100.00;66210.34;5000090;28;20129;-81
2022/11/20 03:51:11;;;;;;;33.20;22.10;;;;;;;-5.39;100.00;66194.34;4991031;28;20052;-78
2022/11/20 03:53:36;;;;;;;32.17;21.65;;;;;;;-5.39;100.00;66196.38;4989090;28;20042;-78
2022/11/20 03:56:01;;;;;;;33.42;21.73;;;;;;;;;;4987315;28;20038;-78
2022/11/20 03:58:27;;;;;;;32.58;21.60;;;;;;;-5.33;100.00;66198.44;4989167;28;20049;-79
2022/11/20 04:00:52;;;;;;;30.23;22.00;;;;;;;-5.32;100.00;66202.19;5000886;28;20441;-78
2022/11/20 04:03:17;;;;;;;30.23;21.30;;;;;;;-5.32;100.00;66207.38;4988599;28;20047;-78
2022/11/20 04:05:43;;;;;;;28.90;21.00;;;;;;;-5.41;100.00;66189.50;4988336;28;20042;-79
2022/11/20 04:08:09;;;;;;;29.73;20.90;;;;;;;-5.51;100.00;66178.88;4995181;28;20054;-78
2022/11/20 04:10:34;;;;;;;29.25;19.48;;;;;;;-5.45;100.00;66192.81;4995638;28;20539;-78
2022/11/20 04:12:59;;;;;;;30.42;21.15;;;;;;;-5.44;100.00;66188.72;4989051;28;20050;-78
2022/11/20 04:15:25;;;;;;;30.63;22.25;;;;;;;-5.52;100.00;66179.81;4989938;28;20049;-79
2022/11/20 04:17:50;;;;;;;30.75;21.20;;;;;;;-5.54;100.00;66178.13;4991476;28;20038;-78
2022/11/20 04:20:16;;;;;;;31.13;22.05;;;;;;;-5.51;100.00;66180.91;4991701;28;20045;-79
2022/11/20 04:22:41;;;;;;;31.20;20.80;;;;;;;-5.50;100.00;66182.59;4992018;28;20046;-79
2022/11/20 04:25:07;;;;;;;29.88;21.05;;;;;;;-5.47;100.00;66187.97;4990422;28;20038;-79
2022/11/20 04:27:32;;;;;;;30.10;20.45;;;;;;;-5.58;100.00;66171.06;4992427;28;20577;-78
2022/11/20 04:29:57;;;;;;;29.52;20.52;;;;;;;-5.56;100.00;66175.31;4990113;28;20031;-79
2022/11/20 04:32:23;;;;;;;28.67;18.45;;;;;;;-5.49;100.00;66183.16;4990423;28;20069;-79
2022/11/20 04:34:48;;;;;;;31.88;21.67;;;;;;;-5.54;100.00;66174.97;4989956;28;20046;-79
2022/11/20 04:37:13;;;;;;;33.60;21.95;;;;;;;-5.53;100.00;66181.25;4999413;28;20034;-79
2022/11/20 04:39:39;;;;;;;31.33;20.98;;;;;;;-5.53;100.00;66179.22;4989897;28;20077;-78
2022/11/20 04:44:48;;;;;;;31.17;20.42;;;;;;;-5.47;100.00;66183.38;4988933;28;20045;-78
2022/11/20 04:47:13;;;;;;;30.98;20.40;;;;;;;-5.53;100.00;66179.22;4988987;28;20030;-80
2022/11/20 04:49:39;;;;;;;30.92;19.45;;;;;;;-5.48;100.00;66184.28;4991261;28;20054;-80
2022/11/20 04:52:04;;;;;;;28.90;21.17;;;;;;;-5.65;100.00;66167.84;4988113;28;20050;-78
2022/11/20 04:54:29;;;;;;;30.65;22.38;;;;;;;-5.71;100.00;66159.66;4995917;28;20037;-79
2022/11/20 04:56:54;;;;;;;26.70;20.38;;;;;;;-5.73;100.00;66154.81;4989052;28;20684;-77
2022/11/20 04:59:20;;;;;;;28.02;20.58;;;;;;;-5.67;100.00;66163.56;4988943;28;20577;-78
2022/11/20 05:01:45;;;;;;;32.30;20.63;;;;;;;-5.64;100.00;66164.34;4987107;28;20034;-79
2022/11/20 05:04:11;;;;;;;29.55;20.23;;;;;;;-5.69;100.00;66163.94;4987979;28;20654;-77
2022/11/20 05:06:36;;;;;;;31.60;21.48;;;;;;;-5.64;100.00;66171.56;4993213;28;20041;-80
2022/11/20 05:09:02;;;;;;;33.22;20.58;;;;;;;-5.72;100.00;66155.97;5002406;28;20038;-77
2022/11/20 05:11:28;;;;;;;43.53;26.52;;;;;;;-5.72;100.00;66152.81;4989682;28;20057;-78
2022/11/20 05:13:54;;;;;;;38.85;23.30;;;;;;;-5.69;100.00;66158.75;4988667;28;20097;-80
2022/11/20 05:16:23;;;;;;;32.45;20.65;;;;;;;-5.70;100.00;66160.78;4988268;28;20042;-77
2022/11/20 05:18:49;;;;;;;30.52;20.42;;;;;;;-5.76;100.00;66151.47;4985974;28;20117;-81
2022/11/20 05:21:16;;;;;;;31.65;20.98;;;;;;;-5.76;100.00;66153.50;4988064;28;20070;-80
2022/11/20 05:23:42;;;;;;;31.65;22.52;;;;;;;-5.72;100.00;66158.00;4985523;28;20045;-77
2022/11/20 05:26:12;;;;;;;30.63;21.08;;;;;;;-5.71;100.00;66156.50;4988428;28;20038;-78
2022/11/20 05:28:37;;;;;;;32.15;22.88;;;;;;;-5.78;100.00;66153.84;4988199;28;20099;-78
2022/11/20 05:31:06;;;;;;;31.13;22.83;;;;;;;-5.82;100.00;66147.34;4988708;28;20125;-79
2022/11/20 05:33:32;;;;;;;29.13;21.02;;;;;;;-5.73;100.00;66151.69;4997192;28;20042;-79
2022/11/20 05:35:58;;;;;;;29.15;21.05;;;;;;;-5.74;100.00;66156.31;4981177;28;20050;-77
2022/11/20 05:38:24;;;;;;;30.63;20.75;;;;;;;-5.80;100.00;66149.03;4990701;28;20045;-78
2022/11/20 05:40:49;;;;;;;31.90;20.27;;;;;;;-5.78;100.00;66151.84;4989671;28;20042;-81
2022/11/20 05:43:14;;;;;;;30.52;21.27;;;;;;;-5.77;100.00;66152.41;4992219;28;20682;-78
2022/11/20 05:45:40;;;;;;;33.00;21.15;;;;;;;-5.81;100.00;66147.91;4989180;28;20116;-82
2022/11/20 05:48:05;;;;;;;27.48;19.00;;;;;;;-5.77;100.00;66155.53;4989737;28;20379;-79
2022/11/20 05:50:30;;;;;;;28.67;19.23;;;;;;;-5.77;100.00;66150.38;4989843;28;20100;-77
2022/11/20 05:52:59;;;;;;;30.08;20.70;;;;;;;-5.76;100.00;66151.47;4989697;28;20034;-79
2022/11/20 05:55:24;;;;;;;28.40;21.48;;;;;;;-5.89;100.00;66136.94;4986883;28;20043;-79
2022/11/20 05:57:50;;;;;;;27.55;19.20;;;;;;;-5.85;100.00;66141.41;4990948;28;20094;-80
2022/11/20 06:00:15;;;;;;;29.10;19.88;;;;;;;-5.89;100.00;66139.53;4986420;28;20453;-78
2022/11/20 06:02:41;;;;;;;30.92;20.40;;;;;;;-5.87;100.00;66141.75;4985705;28;20418;-78
2022/11/20 06:05:06;;;;;;;30.38;22.02;;;;;;;-5.91;100.00;66137.28;5000693;28;20498;-79
2022/11/20 06:07:32;;;;;;;36.85;24.35;;;;;;;-5.88;100.00;66135.47;4990661;28;20053;-79
2022/11/20 06:09:57;;;;;;;34.25;23.45;;;;;;;-5.84;100.00;66147.72;4987739;28;20034;-78
2022/11/20 06:12:22;;;;;;;40.40;25.15;;;;;;;-5.88;100.00;66140.09;5006499;28;20073;-80
2022/11/20 06:14:48;;;;;;;37.53;24.88;;;;;;;-5.95;100.00;66136.00;4990774;28;20034;-78
2022/11/20 06:17:13;;;;;;;34.28;24.48;;;;;;;-6.00;100.00;66127.25;4990159;28;20434;-78
2022/11/20 06:19:38;;;;;;;35.88;24.20;;;;;;;-6.06;100.00;66120.56;4989506;28;20085;-80
2022/11/20 06:22:04;;;;;;;32.92;21.98;;;;;;;-6.09;100.00;66122.38;4987570;28;20117;-78
2022/11/20 06:24:29;;;;;;;35.22;23.23;;;;;;;-6.03;100.00;66121.88;4985057;28;20073;-80
2022/11/20 06:26:54;;;;;;;40.72;25.40;;;;;;;-6.04;100.00;66120.19;4989283;28;20073;-78
2022/11/20 06:29:20;;;;;;;59.42;32.45;;;;;;;-6.02;100.00;66122.44;4994282;28;20035;-79
2022/11/20 06:31:45;;;;;;;35.53;23.15;;;;;;;-6.01;100.00;66128.72;5007860;28;20082;-80
2022/11/20 06:34:10;;;;;;;31.73;20.65;;;;;;;-6.00;100.00;66132.44;4991277;28;20078;-79
2022/11/20 06:36:36;;;;;;;29.48;19.65;;;;;;;-5.98;100.00;66124.88;4995127;28;20096;-78
2022/11/20 06:39:02;;;;;;;31.48;21.65;;;;;;;-5.98;100.00;66132.09;4997563;28;20129;-79
2022/11/20 06:41:27;;;;;;;31.83;21.85;;;;;;;-5.98;100.00;66126.91;4989840;28;20077;-79
2022/11/20 06:43:53;;;;;;;32.55;20.52;;;;;;;-6.02;100.00;66130.19;4989885;28;20090;-79
2022/11/20 06:46:19;;;;;;;28.90;20.15;;;;;;;-6.04;100.00;66122.78;4989427;28;20043;-79
2022/11/20 06:48:46;;;;;;;32.53;19.88;;;;;;;-5.97;100.00;66133.19;4990103;28;20050;-79
2022/11/20 06:51:12;;;;;;;30.08;20.75;;;;;;;-5.98;100.00;66130.06;4989922;28;20070;-78
2022/11/20 06:53:37;;;;;;;35.13;22.83;;;;;;;-5.99;100.00;66128.38;4990512;28;20502;-79
2022/11/20 06:56:06;;;;;;;34.00;21.50;;;;;;;-5.98;100.00;66132.66;4989486;28;20128;-79
2022/11/20 06:58:33;;;;;;;31.93;22.07;;;;;;;-6.02;100.00;66125.00;4944756;28;1143976;-78
2022/11/20 07:01:03;;;;;;;33.55;22.75;;;;;;;-6.03;100.00;66124.47;4987099;28;20038;-80
2022/11/20 07:03:29;;;;;;;34.22;21.55;;;;;;;-5.99;100.00;66133.56;4990155;28;20046;-78
2022/11/20 07:05:56;;;;;;;34.60;22.60;;;;;;;-5.98;100.00;66134.69;4990582;28;20193;-79
2022/11/20 07:08:21;;;;;;;32.67;23.52;;;;;;;-5.96;100.00;66132.28;4991374;28;20564;-81
2022/11/20 07:10:47;;;;;;;35.60;23.95;;;;;;;-6.00;100.00;66124.66;4993318;28;20116;-77
2022/11/20 07:13:12;;;;;;;32.88;21.27;;;;;;;-5.95;100.00;66138.59;4984036;28;20498;-77
2022/11/20 07:15:38;;;;;;;36.97;24.98;;;;;;;-5.98;100.00;66129.50;5004672;28;20892;-78
2022/11/20 07:18:03;;;;;;;37.05;23.80;;;;;;;-5.98;100.00;66130.06;4987738;28;20061;-78
2022/11/20 07:20:29;;;;;;;37.25;25.50;;;;;;;-5.99;100.00;66125.78;4990941;28;20078;-78
2022/11/20 07:22:55;;;;;;;38.38;24.58;;;;;;;-5.91;100.00;66142.47;4993491;28;20088;-78
2022/11/20 07:25:22;;;;;;;36.33;24.25;;;;;;;-5.86;100.00;66142.91;4991618;28;20044;-79
2022/11/20 07:27:47;;;;;;;38.17;23.63;;;;;;;-5.87;100.00;66141.75;4988248;28;20050;-79
2022/11/20 07:30:13;;;;;;;40.22;28.05;;;;;;;-5.69;100.00;66159.31;4994871;28;20060;-78
2022/11/20 07:32:39;;;;;;;40.03;26.30;;;;;;;-5.62;100.00;66168.59;4992698;28;20050;-80
2022/11/20 07:35:05;;;;;;;33.20;22.85;;;;;;;-5.67;100.00;66164.16;4983322;28;20054;-79
2022/11/20 07:37:30;;;;;;;36.47;24.70;;;;;;;-5.66;100.00;66164.69;5006652;28;20038;-81
2022/11/20 07:39:55;;;;;;;34.45;23.05;;;;;;;-5.58;100.00;66171.06;5005122;28;20414;-80
2022/11/20 07:42:21;;;;;;;34.63;21.92;;;;;;;-5.52;100.00;66179.81;4991271;28;20156;-79
2022/11/20 07:44:46;;;;;;;41.13;24.63;;;;;;;-5.43;100.00;66189.31;4990109;28;20482;-78
2022/11/20 07:47:14;;;;;;;49.75;30.63;;;;;;;-5.27;100.00;66205.16;4990763;28;20042;-80
2022/11/20 07:49:39;;;;;;;42.80;28.20;;;;;;;-5.17;100.00;66225.63;4992795;28;20049;-79
2022/11/20 07:52:04;;;;;;;41.80;28.13;;;;;;;-5.04;100.00;66232.38;4991918;28;20042;-79
2022/11/20 07:54:30;;;;;;;38.63;27.35;;;;;;;-5.02;100.00;66234.63;4989052;28;20526;-79
2022/11/20 07:56:55;;;;;;;37.50;26.92;;;;;;;-4.95;100.00;66242.44;4989217;28;20383;-79
2022/11/20 07:59:20;;;;;;;40.28;28.05;;;;;;;-4.91;100.00;66246.94;4998260;28;20047;-79
2022/11/20 08:01:46;;;;;;;39.30;26.90;;;;;;;-4.89;100.00;66246.00;4990834;28;20066;-80
2022/11/20 08:04:11;;;;;;;34.83;24.80;;;;;;;-4.83;100.00;66255.88;4992282;28;20050;-77
2022/11/20 08:06:37;;;;;;;37.83;25.05;;;;;;;-4.71;100.00;66266.16;4991685;28;20042;-79
2022/11/20 08:09:02;;;;;;;34.25;20.88;;;;;;;-4.71;100.00;66265.59;4986815;28;20046;-78
2022/11/20 08:14:12;;;;;;;35.17;23.38;;;;;;;-4.51;100.00;66288.00;4997659;28;20092;-78
2022/11/20 08:16:42;;;;;;;38.60;24.58;;;;;;;-4.43;100.00;66301.56;4995407;28;20050;-78
2022/11/20 08:19:08;;;;;;;36.85;27.00;;;;;;;-4.34;100.00;66312.22;4991373;28;20049;-78
2022/11/20 08:21:33;;;;;;;34.92;22.80;;;;;;;-4.25;100.00;66319.16;4991143;28;20046;-77
2022/11/20 08:23:59;;;;;;;38.53;24.00;;;;;;;-4.16;100.00;66328.66;4995186;28;20041;-78
2022/11/20 08:26:25;;;;;;;37.88;25.02;;;;;;;-4.06;100.00;66339.84;4990971;28;20089;-78
2022/11/20 08:28:54;;;;;;;36.22;22.73;;;;;;;-4.07;100.00;66336.13;4993300;28;20100;-78
2022/11/20 08:31:20;;;;;;;37.90;27.75;;;;;;;-3.98;100.00;66348.25;4992602;28;20121;-78
2022/11/20 08:33:46;;;;;;;40.00;24.90;;;;;;;-3.91;100.00;66350.91;4990843;28;20469;-78
2022/11/20 08:36:11;;;;;;;40.03;24.58;;;;;;;-3.76;100.00;66372.34;4994610;28;20070;-78
2022/11/20 08:38:36;;;;;;;41.47;26.50;;;;;;;-3.66;100.00;66383.56;4997509;28;20046;-79
2022/11/20 08:43:47;;;;;;;38.38;22.80;;;;;;;-3.53;100.00;66397.56;4990414;28;20570;-79
2022/11/20 08:46:13;;;;;;;38.38;25.55;;;;;;;-3.45;100.00;66401.34;4978296;28;20125;-80
2022/11/20 08:48:38;;;;;;;42.33;24.30;;;;;;;-3.37;100.00;66412.31;4988027;28;20168;-79
2022/11/20 08:51:04;;;;;;;46.08;30.58;;;;;;;-3.26;100.00;66422.63;4989407;28;20049;-78
2022/11/20 08:53:29;;;;;;;41.55;24.33;;;;;;;-3.11;100.00;66438.31;4990319;28;20052;-80
2022/11/20 08:55:56;;;;;;;45.72;29.73;;;;;;;-3.03;100.00;66450.44;4986888;28;20042;-79
2022/11/20 08:58:22;;;;;;;45.25;26.05;;;;;;;-2.97;100.00;66454.56;4988280;28;20102;-80
2022/11/20 09:00:47;;;;;;;40.40;26.92;;;;;;;-2.88;100.00;66469.31;4990087;28;20134;-77
2022/11/20 09:03:13;;;;;;;44.97;25.23;;;;;;;-2.77;100.00;66475.88;4992135;28;20410;-79
2022/11/20 09:05:39;;;;;;;45.40;28.95;;;;;;;-2.66;100.00;66490.81;4985351;28;20039;-79
2022/11/20 09:08:05;;;;;;;46.90;28.20;;;;;;;-2.58;100.00;66499.78;4984276;28;20050;-77
2022/11/20 09:10:30;;;;;;;46.20;31.20;;;;;;;-2.47;100.00;66511.00;4991577;28;20053;-77
2022/11/20 09:12:56;;;;;;;46.75;30.85;;;;;;;-2.33;100.00;66524.09;4988443;28;20577;-79
2022/11/20 09:15:22;;;;;;;43.78;28.70;;;;;;;-2.17;100.00;66546.72;4986238;28;20038;-79
2022/11/20 09:17:59;;;;;;;45.45;30.55;;;;;;;-2.10;100.00;66552.53;4993589;28;20447;-80
2022/11/20 09:20:26;;;;;;;45.03;27.38;;;;;;;-2.11;100.00;66551.38;4989691;28;20042;-78
2022/11/20 09:22:52;;;;;;;45.08;29.27;;;;;;;-2.04;100.00;66561.31;4983391;28;20112;-79
2022/11/20 09:25:17;;;;;;;43.60;28.08;;;;;;;-1.89;100.00;66577.59;4979815;28;20042;-78
2022/11/20 09:27:43;;;;;;;47.22;29.90;;;;;;;-1.71;100.00;66592.56;4986196;28;20066;-78
2022/11/20 09:30:09;;;;;;;45.22;28.35;;;;;;;-1.67;100.00;66597.06;4990977;28;20104;-80
2022/11/20 09:32:35;;;;;;;45.50;29.15;;;;;;;-1.61;100.00;66603.78;4988104;28;20297;-78
2022/11/20 09:35:01;;;;;;;49.03;30.02;;;;;;;-1.48;100.00;66617.25;4985903;28;20050;-79
2022/11/20 09:37:26;;;;;;;45.95;29.85;;;;;;;-1.42;100.00;66624.56;4988177;28;20490;-79
2022/11/20 09:39:51;;;;;;;43.85;25.30;;;;;;;-1.35;100.00;66634.47;4986364;28;20066;-78
2022/11/20 09:42:41;;;;;;;45.38;32.80;;;;;;;-1.24;100.00;66648.88;4987456;28;20123;-78
2022/11/20 09:45:33;;;;;;;42.75;30.33;;;;;;;-1.14;100.00;66658.06;4981860;28;20135;-79
2022/11/20 09:48:22;;;;;;;47.70;33.03;;;;;;;-0.97;100.00;66676.03;4980028;28;20050;-80
2022/11/20 09:51:08;;;;;;;43.60;29.45;;;;;;;;;;4996259;28;20046;-78
2022/11/20 09:54:00;;;;;;;39.97;27.85;;;;;;;-0.82;100.00;66692.88;4991272;28;20191;-77
2022/11/20 09:56:25;;;;;;;36.67;22.05;;;;;;;-0.71;100.00;66702.63;4969023;28;20046;-78
2022/11/20 09:58:54;;;;;;;36.08;25.50;;;;;;;-0.61;100.00;66713.28;4989328;28;20577;-78
2022/11/20 10:01:22;;;;;;;33.83;21.10;;;;;;;-0.49;100.00;66726.78;4991546;28;20038;-78
2022/11/20 10:03:54;;;;;;;37.15;26.00;;;;;;;-0.34;99.76;66745.69;4990907;28;20046;-77
2022/11/20 10:06:28;;;;;;;39.28;23.55;;;;;;;-0.17;99.48;66761.63;4974790;28;21966;-77
2022/11/20 10:09:03;;;;;;;34.22;24.40;;;;;;;-0.10;99.03;66772.13;4981493;28;20077;-78
2022/11/20 10:11:53;;;;;;;28.70;16.23;;;;;;;-0.05;98.32;66777.19;4987082;28;20048;-78
2022/11/20 10:14:25;;;;;;;34.60;23.58;;;;;;;;;;4965192;28;20053;-77
2022/11/20 10:17:15;;;;;;;28.20;17.35;;;;;;;0.18;97.78;66803.03;4977998;28;20125;-77
2022/11/20 10:19:59;;;;;;;31.77;21.48;;;;;;;;;;4984483;28;20038;-77
2022/11/20 10:23:00;;;;;;;31.00;20.15;;;;;;;0.41;98.12;66825.16;4976390;28;20074;-78
2022/11/20 10:25:53;;;;;;;27.38;18.83;;;;;;;0.51;97.31;66841.63;4966618;28;20134;-78
2022/11/20 10:28:38;;;;;;;33.70;23.73;;;;;;;0.55;97.09;66843.53;4965491;28;20053;-77
2022/11/20 10:31:08;;;;;;;28.00;18.00;;;;;;;0.63;97.17;66849.91;4988876;28;20060;-78
2022/11/20 10:33:41;;;;;;;32.40;20.48;;;;;;;0.77;96.64;66867.16;4986651;28;20042;-77
2022/11/20 10:36:16;;;;;;;30.17;19.75;;;;;;;0.89;96.05;66878.59;4990625;28;20132;-79
2022/11/20 10:39:00;;;;;;;29.33;19.02;;;;;;;0.97;96.40;66889.66;4984663;28;20045;-78
2022/11/20 10:41:34;;;;;;;29.45;20.40;;;;;;;1.12;96.06;66903.34;4984689;28;20302;-78
2022/11/20 10:44:05;;;;;;;31.30;19.95;;;;;;;1.22;96.13;66914.63;4976651;28;20038;-80
2022/11/20 10:46:40;;;;;;;29.52;19.70;;;;;;;1.37;96.02;66930.38;4987835;28;20458;-79
2022/11/20 10:49:18;;;;;;;29.20;19.27;;;;;;;1.51;95.78;66946.13;4988255;28;20126;-79
2022/11/20 10:52:12;;;;;;;27.23;18.45;;;;;;;1.59;94.62;66960.41;4990523;28;20038;-79
2022/11/20 10:54:47;;;;;;;24.65;15.65;;;;;;;;;;4969592;28;20425;-79
2022/11/20 10:57:21;;;;;;;30.63;20.90;;;;;;;1.63;95.21;66961.72;4985316;28;20050;-79
2022/11/20 11:00:13;;;;;;;27.20;17.70;;;;;;;1.70;94.78;66972.78;4988102;28;20046;-79
2022/11/20 11:02:46;;;;;;;25.77;16.45;;;;;;;1.68;95.36;66964.72;4977803;28;20848;-77
2022/11/20 11:05:46;;;;;;;25.38;17.00;;;;;;;1.72;95.80;66971.84;5001014;28;20034;-81
2022/11/20 11:08:16;;;;;;;26.35;18.15;;;;;;;;;;4988990;28;20135;-79
2022/11/20 11:11:02;;;;;;;26.98;18.05;;;;;;;;;;4985126;28;20502;-78
2022/11/20 11:13:30;;;;;;;28.08;18.40;;;;;;;1.82;96.15;66979.94;4984790;28;20137;-77
2022/11/20 11:15:56;;;;;;;26.33;18.30;;;;;;;1.85;96.06;66985.94;4987893;28;20631;-80
2022/11/20 11:18:27;;;;;;;25.88;16.35;;;;;;;1.87;95.71;66986.13;4987727;28;20048;-79
2022/11/20 11:20:53;;;;;;;26.58;15.63;;;;;;;1.87;95.94;66986.13;4985502;28;20046;-79
2022/11/20 11:23:37;;;;;;;25.05;18.13;;;;;;;1.91;95.94;66990.63;4991259;28;20042;-79
2022/11/20 11:26:06;;;;;;;23.88;15.18;;;;;;;1.98;96.14;66998.50;4983640;28;20781;-79
2022/11/20 11:28:32;;;;;;;27.53;18.53;;;;;;;2.03;95.67;67006.75;4987485;28;20035;-79
2022/11/20 11:30:57;;;;;;;22.60;14.15;;;;;;;2.03;94.49;67004.13;5000526;28;20069;-79